Elblag Airport


Codes: EPEL/
Name: Elblag Airport
City:
Country: Poland
Elevation: 10 ft.

Photos at Elblag Airport


   Photos courtesy of SpottingLog. You can add your own sightings and photos by signing up for a free trial today.



No photos found.

Weather at Elblag Airport


Time (UTC)DescriptionTempratureWindCloud coverageVisibilityPressureHumidity
18-Apr-2024 00:00Light Rain3°C7 mph, N91%9152m1010hPa93%
18-Apr-2024 03:00Light Rain3°C7 mph, N94%10000m1010hPa91%
18-Apr-2024 06:00Light Snow4°C9 mph, N95%10000m1011hPa83%
18-Apr-2024 09:00Overcast Clouds5°C11 mph, N99%10000m1012hPa72%
18-Apr-2024 12:00Light Rain6°C13 mph, N97%10000m1013hPa68%
18-Apr-2024 15:00Light Rain6°C11 mph, N85%10000m1013hPa69%
18-Apr-2024 18:00Broken Clouds2°C7 mph, NW61%10000m1014hPa85%
18-Apr-2024 21:00Clear Sky0°C4 mph, NW6%10000m1013hPa89%
19-Apr-2024 00:00Clear Sky0°C4 mph, SW8%10000m1012hPa89%
19-Apr-2024 03:00Few Clouds-0°C7 mph, S21%10000m1010hPa90%
19-Apr-2024 06:00Broken Clouds4°C9 mph, SW60%10000m1009hPa75%
19-Apr-2024 09:00Light Rain9°C11 mph, SW100%10000m1007hPa61%
19-Apr-2024 12:00Light Rain10°C9 mph, W100%10000m1005hPa49%
19-Apr-2024 15:00Overcast Clouds10°C7 mph, SW100%10000m1004hPa52%
19-Apr-2024 18:00Light Rain6°C4 mph, S100%10000m1004hPa85%
19-Apr-2024 21:00Light Rain5°C4 mph, SE100%10000m1004hPa92%
20-Apr-2024 00:00Light Rain5°C7 mph, NE100%10000m1004hPa96%
20-Apr-2024 03:00Light Rain4°C11 mph, NE100%10000m1005hPa98%
20-Apr-2024 06:00Moderate Rain3°C13 mph, N100%0m1008hPa97%
20-Apr-2024 09:00Light Rain5°C13 mph, N100%10000m1010hPa87%
20-Apr-2024 12:00Light Rain5°C16 mph, N100%10000m1013hPa75%
20-Apr-2024 15:00Overcast Clouds5°C16 mph, N100%10000m1015hPa71%
20-Apr-2024 18:00Overcast Clouds3°C16 mph, N100%10000m1018hPa75%
20-Apr-2024 21:00Overcast Clouds3°C13 mph, N100%10000m1019hPa74%
21-Apr-2024 00:00Overcast Clouds3°C11 mph, N100%10000m1020hPa82%
21-Apr-2024 03:00Light Snow2°C11 mph, N100%10000m1021hPa90%
21-Apr-2024 06:00Overcast Clouds3°C16 mph, NE100%10000m1023hPa80%
21-Apr-2024 09:00Overcast Clouds5°C16 mph, NE95%10000m1024hPa67%
21-Apr-2024 12:00Overcast Clouds6°C16 mph, N98%10000m1024hPa68%
21-Apr-2024 15:00Overcast Clouds6°C13 mph, N100%10000m1024hPa72%
21-Apr-2024 18:00Overcast Clouds5°C9 mph, N100%10000m1024hPa84%
21-Apr-2024 21:00Broken Clouds4°C9 mph, N79%10000m1023hPa94%
22-Apr-2024 00:00Overcast Clouds5°C11 mph, N89%10000m1023hPa88%
22-Apr-2024 03:00Overcast Clouds5°C11 mph, N100%10000m1022hPa90%
22-Apr-2024 06:00Overcast Clouds5°C13 mph, N100%10000m1021hPa85%
22-Apr-2024 09:00Overcast Clouds6°C18 mph, N100%10000m1020hPa79%
22-Apr-2024 12:00Overcast Clouds6°C20 mph, N100%10000m1020hPa72%
22-Apr-2024 15:00Light Rain4°C20 mph, N100%10000m1020hPa83%
22-Apr-2024 18:00Light Snow3°C18 mph, N100%7579m1019hPa85%
22-Apr-2024 21:00Light Snow3°C18 mph, N100%10000m1019hPa87%